createdAt,value
2022-10-24T00:02:18.752Z,18.80
2022-10-24T00:05:33.781Z,18.57
2022-10-24T00:08:50.803Z,19.42
2022-10-24T00:12:05.814Z,22.75
2022-10-24T00:15:27.802Z,21.40
2022-10-24T00:18:42.801Z,20.93
2022-10-24T00:21:51.401Z,20.57
2022-10-24T00:24:59.809Z,21.27
2022-10-24T00:28:08.361Z,20.55
2022-10-24T00:31:20.809Z,18.95
2022-10-24T00:34:29.405Z,21.40
2022-10-24T00:37:37.800Z,23.63
2022-10-24T00:40:46.351Z,19.50
2022-10-24T00:43:54.856Z,20.80
2022-10-24T00:47:21.774Z,19.48
2022-10-24T00:50:23.626Z,19.10
2022-10-24T00:53:42.791Z,22.63
2022-10-24T00:57:03.823Z,20.90
2022-10-24T01:00:23.867Z,21.02
2022-10-24T01:03:32.822Z,20.20
2022-10-24T01:07:11.234Z,17.70
2022-10-24T01:10:37.804Z,21.10
2022-10-24T01:14:11.866Z,20.10
2022-10-24T01:17:43.476Z,24.00
2022-10-24T01:21:21.843Z,19.02
2022-10-24T01:24:49.866Z,18.50
2022-10-24T01:28:15.834Z,19.73
2022-10-24T01:31:41.820Z,18.90
2022-10-24T01:38:50.865Z,18.55
2022-10-24T01:42:08.842Z,21.37
2022-10-24T01:45:20.816Z,19.10
2022-10-24T01:48:34.313Z,24.25
2022-10-24T01:51:44.808Z,19.62
2022-10-24T01:55:00.839Z,22.95
2022-10-24T01:58:08.821Z,17.90
2022-10-24T02:01:23.013Z,18.37
2022-10-24T02:04:33.843Z,19.92
2022-10-24T02:07:52.867Z,21.10
2022-10-24T02:10:58.824Z,21.05
2022-10-24T02:14:34.851Z,20.87
2022-10-24T02:17:49.877Z,19.23
2022-10-24T02:21:16.031Z,19.25
2022-10-24T02:24:29.879Z,21.83
2022-10-24T02:27:47.309Z,20.45
2022-10-24T02:31:07.834Z,17.87
2022-10-24T02:34:18.868Z,18.03
2022-10-24T02:37:36.857Z,20.60
2022-10-24T02:40:47.862Z,19.70
2022-10-24T02:44:03.904Z,17.90
2022-10-24T02:47:07.982Z,18.63
2022-10-24T02:50:22.859Z,21.87
2022-10-24T02:53:25.551Z,18.75
2022-10-24T02:56:41.843Z,18.10
2022-10-24T02:59:43.655Z,20.95
2022-10-24T03:02:57.843Z,17.53
2022-10-24T03:05:59.571Z,18.63
2022-10-24T03:09:14.876Z,19.90
2022-10-24T03:12:23.852Z,20.70
2022-10-24T03:15:31.977Z,17.65
2022-10-24T03:18:53.887Z,18.00
2022-10-24T03:22:02.459Z,20.30
2022-10-24T03:25:10.930Z,18.75
2022-10-24T03:28:19.494Z,17.40
2022-10-24T03:31:27.879Z,21.95
2022-10-24T03:34:42.882Z,18.10
2022-10-24T03:37:44.745Z,18.83
2022-10-24T03:40:59.904Z,19.25
2022-10-24T03:44:01.675Z,23.55
2022-10-24T03:47:15.881Z,20.05
2022-10-24T03:50:24.475Z,24.60
2022-10-24T03:53:33.060Z,23.67
2022-10-24T03:56:49.945Z,20.55
2022-10-24T03:59:51.741Z,21.60
2022-10-24T04:03:06.922Z,23.87
2022-10-24T04:06:08.680Z,22.47
2022-10-24T04:09:22.912Z,25.87
2022-10-24T04:12:25.241Z,22.95
2022-10-24T04:15:39.906Z,24.92
2022-10-24T04:18:54.915Z,24.42
2022-10-24T04:22:09.995Z,26.27
2022-10-24T04:25:17.943Z,28.70
2022-10-24T04:28:26.527Z,28.90
2022-10-24T04:31:34.909Z,23.90
2022-10-24T04:34:49.913Z,30.05
2022-10-24T04:38:04.944Z,27.13
2022-10-24T04:41:09.840Z,29.73
2022-10-24T04:44:26.927Z,31.60
2022-10-24T04:47:28.687Z,32.58
2022-10-24T04:50:43.936Z,31.37
2022-10-24T04:53:52.483Z,27.87
2022-10-24T04:57:00.972Z,29.17
2022-10-24T05:00:09.988Z,28.70
2022-10-24T05:03:17.939Z,29.12
2022-10-24T05:06:32.962Z,30.95
2022-10-24T05:09:41.974Z,28.60
2022-10-24T05:12:56.937Z,27.53
2022-10-24T05:16:04.992Z,32.33
2022-10-24T05:19:20.295Z,29.42
2022-10-24T05:22:34.939Z,32.72
2022-10-24T05:25:36.692Z,27.93
2022-10-24T05:28:52.642Z,29.07
2022-10-24T05:32:00.957Z,31.05
2022-10-24T05:35:15.976Z,33.92
2022-10-24T05:38:17.914Z,31.10
2022-10-24T05:41:33.058Z,41.80
2022-10-24T05:44:37.225Z,35.57
2022-10-24T05:47:52.180Z,31.50
2022-10-24T05:50:58.481Z,38.67
2022-10-24T05:57:19.770Z,36.80
2022-10-24T06:00:34.990Z,36.63
2022-10-24T06:03:49.993Z,36.65
2022-10-24T06:06:51.904Z,34.50
2022-10-24T06:10:07.979Z,24.17
2022-10-24T06:13:18.383Z,26.37
2022-10-24T06:16:27.000Z,27.97
2022-10-24T06:19:36.702Z,33.05
2022-10-24T06:22:47.402Z,32.80
2022-10-24T06:26:02.033Z,33.83
2022-10-24T06:29:06.930Z,36.77
2022-10-24T06:32:22.023Z,45.97
2022-10-24T06:35:30.640Z,29.58
2022-10-24T06:38:41.033Z,36.28
2022-10-24T06:41:49.860Z,29.40
2022-10-24T06:48:13.019Z,33.57
2022-10-24T06:51:16.623Z,35.65
2022-10-24T06:54:31.035Z,33.67
2022-10-24T06:57:39.615Z,38.97
2022-10-24T07:00:54.105Z,36.37
2022-10-24T07:03:56.037Z,30.33
2022-10-24T07:07:11.043Z,39.88
2022-10-24T07:10:21.003Z,40.58
2022-10-24T07:13:29.733Z,39.75
2022-10-24T07:16:39.058Z,54.23
2022-10-24T07:19:55.291Z,39.07
2022-10-24T07:23:14.686Z,32.70
2022-10-24T07:26:34.078Z,35.03
2022-10-24T07:29:42.585Z,31.60
2022-10-24T07:32:51.083Z,36.67
2022-10-24T07:35:59.873Z,40.67
2022-10-24T07:39:08.043Z,44.40
2022-10-24T07:42:23.048Z,47.22
2022-10-24T07:45:24.852Z,47.17
2022-10-24T07:48:41.091Z,38.90
2022-10-24T07:51:43.147Z,42.97
2022-10-24T07:55:01.056Z,60.53
2022-10-24T07:58:09.072Z,51.37
2022-10-24T08:01:27.153Z,38.08
2022-10-24T08:04:35.168Z,31.33
2022-10-24T08:07:48.631Z,43.07
2022-10-24T08:11:16.177Z,32.38
2022-10-24T08:14:17.980Z,39.83
2022-10-24T08:17:40.110Z,42.45
2022-10-24T08:20:41.947Z,39.03
2022-10-24T08:23:59.091Z,38.80
2022-10-24T08:27:00.884Z,46.10
2022-10-24T08:30:16.089Z,35.75
2022-10-24T08:33:25.055Z,43.05
2022-10-24T08:36:42.141Z,40.20
2022-10-24T08:39:50.164Z,42.03
2022-10-24T08:43:05.088Z,34.50
2022-10-24T08:46:25.895Z,40.50
2022-10-24T08:49:50.694Z,37.80
2022-10-24T08:53:02.458Z,38.40
2022-10-24T08:56:18.277Z,36.73
2022-10-24T08:59:21.123Z,35.20
2022-10-24T09:02:42.193Z,32.92
2022-10-24T09:05:51.092Z,37.55
2022-10-24T09:09:10.095Z,33.60
2022-10-24T09:12:21.140Z,34.23
2022-10-24T09:15:37.214Z,38.42
2022-10-24T09:18:48.231Z,30.73
2022-10-24T09:22:06.091Z,27.33
2022-10-24T09:25:21.164Z,30.90
2022-10-24T09:28:30.467Z,30.33
2022-10-24T09:31:39.081Z,30.08
2022-10-24T09:34:48.846Z,28.77
2022-10-24T09:38:03.103Z,52.97
2022-10-24T09:41:29.442Z,30.07
2022-10-24T09:44:44.192Z,37.87
2022-10-24T09:48:06.454Z,27.90
2022-10-24T09:51:15.191Z,28.58
2022-10-24T09:54:28.295Z,32.30
2022-10-24T09:57:45.615Z,35.03
2022-10-24T10:01:07.240Z,33.60
2022-10-24T10:04:17.497Z,31.15
2022-10-24T10:07:35.287Z,44.63
2022-10-24T10:10:37.814Z,29.40
2022-10-24T10:13:57.315Z,38.03
2022-10-24T10:17:08.159Z,38.50
2022-10-24T10:20:37.452Z,30.25
2022-10-24T10:23:53.143Z,34.75
2022-10-24T10:27:09.191Z,30.17
2022-10-24T10:30:27.138Z,36.33
2022-10-24T10:33:44.522Z,28.80
2022-10-24T10:37:20.365Z,35.80
2022-10-24T10:40:42.171Z,34.97
2022-10-24T10:44:28.267Z,35.83
2022-10-24T10:47:57.162Z,45.97
2022-10-24T10:51:22.167Z,36.17
2022-10-24T10:55:23.437Z,38.00
2022-10-24T10:59:15.129Z,34.28
2022-10-24T11:02:49.490Z,33.22
2022-10-24T11:06:25.163Z,36.03
2022-10-24T11:09:48.168Z,34.13
2022-10-24T11:12:56.212Z,38.63
2022-10-24T11:16:12.259Z,39.47
2022-10-24T11:19:47.252Z,40.25
2022-10-24T11:23:10.225Z,36.47
2022-10-24T11:26:41.226Z,37.00
2022-10-24T11:29:55.510Z,73.80
2022-10-24T11:33:13.223Z,47.70
2022-10-24T11:36:33.844Z,43.13
2022-10-24T11:40:01.218Z,41.30
2022-10-24T11:43:26.373Z,42.17
2022-10-24T11:46:42.415Z,39.30
2022-10-24T11:49:58.395Z,39.85
2022-10-24T11:53:29.283Z,52.55
2022-10-24T11:56:50.900Z,46.70
2022-10-24T12:00:06.219Z,44.40
2022-10-24T12:03:48.177Z,43.28
2022-10-24T12:07:22.216Z,44.53
2022-10-24T12:11:07.253Z,90.80
2022-10-24T12:14:45.200Z,51.63
2022-10-24T12:18:11.585Z,50.80
2022-10-24T12:21:31.277Z,45.42
2022-10-24T12:24:41.196Z,44.47
2022-10-24T12:28:02.291Z,53.97
2022-10-24T12:31:27.312Z,45.17
2022-10-24T12:34:48.760Z,133.47
2022-10-24T12:38:04.217Z,53.85
2022-10-24T12:41:44.193Z,46.78
2022-10-24T12:45:31.161Z,40.22
2022-10-24T12:48:49.324Z,48.47
2022-10-24T12:52:06.304Z,47.90
2022-10-24T12:55:30.451Z,44.63
2022-10-24T12:58:49.228Z,43.28
2022-10-24T13:02:30.226Z,38.35
2022-10-24T13:05:57.802Z,44.63
2022-10-24T13:09:28.652Z,43.93
2022-10-24T13:16:42.273Z,43.45
2022-10-24T13:20:02.934Z,42.95
2022-10-24T13:23:24.224Z,43.30
2022-10-24T13:26:45.200Z,38.43
2022-10-24T13:30:01.550Z,36.45
2022-10-24T13:33:36.219Z,39.80
2022-10-24T13:36:45.241Z,34.65
2022-10-24T13:40:00.947Z,40.57
2022-10-24T13:43:13.244Z,39.47
2022-10-24T13:46:37.557Z,37.17
2022-10-24T13:50:01.255Z,47.67
2022-10-24T13:53:30.609Z,34.97
2022-10-24T13:56:38.347Z,42.47
2022-10-24T14:00:01.314Z,38.03
2022-10-24T14:03:20.202Z,39.47
2022-10-24T14:06:32.304Z,37.75
2022-10-24T14:09:50.288Z,39.08
2022-10-24T14:13:00.241Z,44.57
2022-10-24T14:16:15.269Z,40.30
2022-10-24T14:19:39.258Z,36.38
2022-10-24T14:22:41.694Z,38.80
2022-10-24T14:26:07.283Z,44.05
2022-10-24T14:29:28.599Z,39.13
2022-10-24T14:32:43.355Z,40.07
2022-10-24T14:35:55.125Z,42.42
2022-10-24T14:39:06.663Z,36.22
2022-10-24T14:42:22.280Z,41.47
2022-10-24T14:45:38.308Z,39.10
2022-10-24T14:48:45.195Z,37.63
2022-10-24T14:52:04.276Z,41.47
2022-10-24T14:55:27.356Z,38.80
2022-10-24T14:58:31.384Z,43.10
2022-10-24T15:01:46.534Z,38.30
2022-10-24T15:04:55.329Z,38.70
2022-10-24T15:08:26.451Z,37.28
2022-10-24T15:11:46.262Z,36.03
2022-10-24T15:14:48.101Z,68.22
2022-10-24T15:18:12.292Z,38.57
2022-10-24T15:21:30.299Z,43.97
2022-10-24T15:24:43.418Z,45.53
2022-10-24T15:27:53.416Z,40.33
2022-10-24T15:31:01.955Z,41.10
2022-10-24T15:34:22.385Z,40.50
2022-10-24T15:37:25.383Z,36.30
2022-10-24T15:40:41.287Z,38.60
2022-10-24T15:43:49.296Z,35.42
2022-10-24T15:47:04.289Z,42.92
2022-10-24T15:50:17.596Z,41.70
2022-10-24T15:53:28.336Z,35.83
2022-10-24T15:56:43.342Z,36.33
2022-10-24T15:59:45.501Z,36.47
2022-10-24T16:03:04.419Z,42.97
2022-10-24T16:06:13.324Z,39.07
2022-10-24T16:09:25.084Z,36.90
2022-10-24T16:12:39.363Z,45.38
2022-10-24T16:15:49.015Z,40.78
2022-10-24T16:18:57.388Z,39.72
2022-10-24T16:22:12.316Z,35.27
2022-10-24T16:25:19.879Z,35.80
2022-10-24T16:28:34.372Z,36.05
2022-10-24T16:31:37.303Z,42.70
2022-10-24T16:34:53.310Z,42.60
2022-10-24T16:37:57.326Z,30.60
2022-10-24T16:41:12.335Z,39.00
2022-10-24T16:44:14.616Z,39.13
2022-10-24T16:47:29.347Z,36.55
2022-10-24T16:50:48.299Z,34.05
2022-10-24T16:53:57.366Z,35.37
2022-10-24T16:57:06.315Z,34.80
2022-10-24T17:00:23.346Z,45.12
2022-10-24T17:03:32.410Z,33.50
2022-10-24T17:06:47.332Z,31.52
2022-10-24T17:09:49.463Z,33.83
2022-10-24T17:13:04.331Z,32.73
2022-10-24T17:16:09.697Z,32.35
2022-10-24T17:19:31.367Z,34.25
2022-10-24T17:25:54.328Z,34.73
2022-10-24T17:28:56.947Z,33.63
2022-10-24T17:32:12.395Z,34.40
2022-10-24T17:35:23.406Z,42.65
2022-10-24T17:38:40.376Z,31.67
2022-10-24T17:41:50.358Z,32.67
2022-10-24T17:45:06.352Z,33.33
2022-10-24T17:48:15.945Z,35.75
2022-10-24T17:51:33.378Z,36.78
2022-10-24T17:54:45.827Z,40.35
2022-10-24T17:58:01.423Z,37.87
2022-10-24T18:01:11.596Z,38.63
2022-10-24T18:04:21.467Z,39.08
2022-10-24T18:07:30.613Z,38.72
2022-10-24T18:10:40.417Z,39.58
2022-10-24T18:13:56.373Z,44.57
2022-10-24T18:17:05.387Z,45.90
2022-10-24T18:20:20.742Z,52.17
2022-10-24T18:23:35.424Z,44.83
2022-10-24T18:26:38.219Z,43.75
2022-10-24T18:29:55.405Z,49.57
2022-10-24T18:33:04.386Z,46.87
2022-10-24T18:36:16.379Z,43.20
2022-10-24T18:39:32.404Z,45.30
2022-10-24T18:42:55.583Z,46.97
2022-10-24T18:46:04.439Z,53.13
2022-10-24T18:49:13.397Z,45.70
2022-10-24T18:52:39.922Z,48.25
2022-10-24T18:55:55.419Z,50.97
2022-10-24T18:58:57.606Z,53.90
2022-10-24T19:02:38.482Z,57.17
2022-10-24T19:05:55.402Z,52.30
2022-10-24T19:09:17.950Z,47.80
2022-10-24T19:12:26.401Z,52.05
2022-10-24T19:15:40.042Z,51.78
2022-10-24T19:18:56.394Z,56.70
2022-10-24T19:22:18.440Z,53.43
2022-10-24T19:25:20.540Z,55.60
2022-10-24T19:28:36.470Z,50.25
2022-10-24T19:31:38.885Z,51.90
2022-10-24T19:34:53.406Z,55.57
2022-10-24T19:37:55.573Z,59.90
2022-10-24T19:41:14.428Z,56.22
2022-10-24T19:44:29.403Z,47.62
2022-10-24T19:47:31.371Z,55.70
2022-10-24T19:50:47.411Z,55.07
2022-10-24T19:53:58.489Z,53.57
2022-10-24T19:57:07.211Z,50.83
2022-10-24T20:00:16.426Z,50.65
2022-10-24T20:03:25.269Z,45.63
2022-10-24T20:06:34.447Z,55.47
2022-10-24T20:09:43.639Z,54.47
2022-10-24T20:12:52.488Z,46.03
2022-10-24T20:16:04.179Z,46.08
2022-10-24T20:19:13.430Z,50.70
2022-10-24T20:22:35.435Z,56.60
2022-10-24T20:25:37.384Z,52.27
2022-10-24T20:28:55.445Z,54.60
2022-10-24T20:31:57.391Z,61.67
2022-10-24T20:35:12.510Z,60.50
2022-10-24T20:38:21.422Z,67.53
2022-10-24T20:41:30.023Z,60.17
2022-10-24T20:44:38.462Z,62.83
2022-10-24T20:47:47.444Z,60.35
2022-10-24T20:51:11.500Z,63.58
2022-10-24T20:54:13.739Z,62.87
2022-10-24T20:57:28.452Z,55.37
2022-10-24T21:00:37.072Z,62.50
2022-10-24T21:03:51.450Z,57.67
2022-10-24T21:06:59.998Z,59.28
2022-10-24T21:10:08.479Z,52.00
2022-10-24T21:13:17.221Z,53.83
2022-10-24T21:16:25.487Z,53.28
2022-10-24T21:19:47.495Z,44.72
2022-10-24T21:22:49.163Z,43.90
2022-10-24T21:26:13.495Z,50.37
2022-10-24T21:29:32.346Z,60.30
2022-10-24T21:32:48.471Z,56.22
2022-10-24T21:35:56.479Z,58.22
2022-10-24T21:39:05.058Z,55.47
2022-10-24T21:42:13.574Z,60.13
2022-10-24T21:45:21.994Z,52.17
2022-10-24T21:48:30.492Z,49.97
2022-10-24T21:51:39.608Z,54.17
2022-10-24T21:54:47.516Z,54.63
2022-10-24T21:57:56.163Z,48.27
2022-10-24T22:01:04.574Z,52.80
2022-10-24T22:04:14.188Z,52.45
2022-10-24T22:07:22.551Z,55.38
2022-10-24T22:10:37.573Z,50.85
2022-10-24T22:13:40.097Z,59.57
2022-10-24T22:16:54.547Z,51.50
2022-10-24T22:20:05.856Z,53.55
2022-10-24T22:23:20.554Z,53.25
2022-10-24T22:26:29.572Z,51.13
2022-10-24T22:29:37.532Z,46.27
2022-10-24T22:32:46.642Z,52.90
2022-10-24T22:36:04.539Z,49.30
2022-10-24T22:39:26.542Z,44.80
2022-10-24T22:42:28.472Z,48.40
2022-10-24T22:45:46.511Z,45.13
2022-10-24T22:49:13.549Z,49.07
2022-10-24T22:52:16.127Z,58.13
2022-10-24T22:55:39.539Z,55.28
2022-10-24T22:58:44.144Z,47.78
2022-10-24T23:02:11.690Z,55.27
2022-10-24T23:05:30.139Z,50.00
2022-10-24T23:08:44.567Z,46.88
2022-10-24T23:12:00.551Z,49.40
2022-10-24T23:15:13.243Z,49.40
2022-10-24T23:18:28.584Z,49.83
2022-10-24T23:21:36.923Z,52.30
2022-10-24T23:24:51.581Z,54.53
2022-10-24T23:28:11.461Z,44.72
2022-10-24T23:31:26.558Z,51.72
2022-10-24T23:34:35.556Z,46.57
2022-10-24T23:37:50.535Z,52.73
2022-10-24T23:40:59.555Z,40.70
2022-10-24T23:44:17.638Z,45.95
2022-10-24T23:47:42.738Z,49.50
2022-10-24T23:51:01.499Z,50.00
2022-10-24T23:54:18.576Z,45.63
2022-10-24T23:57:20.861Z,52.78
